Marine Rescue Ps31 — PS31 — position and weather

sailwx.info

Track history (hours):
 
Tides and Currents Weather Stations Pressure Air Temp Water Temp Dewpoint Dewpoint Depression Visibility Wind Speed Wind Dir Waves Ship Positions

Marine Rescue Ps31

Last reported at 2018-Feb-20 23:40 UTC. Time now 2018-Feb-22 19:18 UTC.
Position S 32°43' E 152°09'.

; draft 1.3 m.

Type: SAR. MMSI: 503038350.

Date/timePositionNaut miles runAvg speedWind from/ knotsBaromVisibWave heightAir tempDewpointWater temp
2018-Feb-20 23:40S 32°43' E 152°09'0 0.0
2018-Feb-20 23:30S 32°43' E 152°09'0 0.0
2018-Feb-20 23:00S 32°43' E 152°09'0 0.0
2018-Feb-20 22:30S 32°43' E 152°09'0 0.0
2018-Feb-20 22:00S 32°43' E 152°09'0 0.0
2018-Feb-20 21:25S 32°43' E 152°09'0 0.0
2018-Feb-20 11:18S 32°43' E 152°09'0 0.0
2018-Feb-20 11:00S 32°43' E 152°09'3 5.7
2018-Feb-20 10:30S 32°40' E 152°07'0 0.5
2018-Feb-20 10:01S 32°41' E 152°07'3 5.2
2018-Feb-20 09:31S 32°43' E 152°09'2 4.0
2018-Feb-20 09:00S 32°42' E 152°11'2 4.7
2018-Feb-20 08:30S 32°43' E 152°09'0 0.0
2018-Feb-20 08:00S 32°43' E 152°09'0 0.0
2018-Feb-18 23:40S 32°43' E 152°09'0 0.0
2018-Feb-18 23:30S 32°43' E 152°09'0 0.0
2018-Feb-18 04:56S 32°43' E 152°09'0 0.9
2018-Feb-18 04:30S 32°43' E 152°09'0 0.0
2018-Feb-17 01:10S 32°43' E 152°09'0 0.0
2018-Feb-17 01:00S 32°43' E 152°09'4 7.8
2018-Feb-17 00:28S 32°42' E 152°04'0 0.0
2018-Feb-17 00:00S 32°42' E 152°04'0 0.0
2018-Feb-16 23:30S 32°42' E 152°04'0 0.0
2018-Feb-16 23:00S 32°42' E 152°04'611.3
2018-Feb-16 22:30S 32°43' E 152°10'1 1.5
2018-Feb-16 22:01S 32°42' E 152°10'1 0.1
2018-Feb-16 01:01S 32°43' E 152°09'0 0.0
2018-Feb-16 01:00S 32°43' E 152°09'4 8.2
2018-Feb-16 00:31S 32°42' E 152°04'2 4.2
2018-Feb-16 00:00S 32°41' E 152°06'2 4.5
2018-Feb-15 23:30S 32°40' E 152°09'0 0.3
2018-Feb-15 23:01S 32°40' E 152°09'2 3.0
2018-Feb-15 22:30S 32°41' E 152°07'2 3.4
2018-Feb-15 22:00S 32°41' E 152°09'2 4.3
2018-Feb-15 21:30S 32°43' E 152°09'0 0.0
2018-Feb-15 21:00S 32°43' E 152°09'0 0.0
2018-Feb-13 23:51S 32°43' E 152°09'0 0.0
2018-Feb-13 23:30S 32°43' E 152°09'0 0.0
2018-Feb-13 23:01S 32°43' E 152°09'0 0.0
2018-Feb-13 22:30S 32°43' E 152°09'0 0.0
2018-Feb-13 01:48S 32°43' E 152°09'0 0.2
2018-Feb-13 01:22S 32°43' E 152°09'2 5.2
2018-Feb-13 01:00S 32°43' E 152°06'2 4.8
2018-Feb-13 00:31S 32°43' E 152°09'1 1.7
2018-Feb-13 00:01S 32°43' E 152°10'0 0.1
2018-Feb-12 23:31S 32°43' E 152°10'0 0.0
2018-Feb-12 23:00S 32°43' E 152°10'1 1.1
2018-Feb-12 22:30S 32°43' E 152°11'2 3.5
2018-Feb-12 22:01S 32°43' E 152°09'0 0.0
2018-Feb-11 02:00S 32°43' E 152°09'  
Track history (hours):
 
Tides and Currents Weather Stations Pressure Air Temp Water Temp Dewpoint Dewpoint Depression Visibility Wind Speed Wind Dir Waves Ship Positions

Marine Rescue Ps31

Last reported at 2018-Feb-20 23:40 UTC. Time now 2018-Feb-22 19:18 UTC.
Position S 32°43' E 152°09'.

; draft 1.3 m.

Type: SAR. MMSI: 503038350.

Date/timePositionNaut miles runAvg speedWind from/ knotsBaromVisibWave heightAir tempDewpointWater temp
2018-Feb-20 23:40S 32°43' E 152°09'0 0.0
2018-Feb-20 23:30S 32°43' E 152°09'0 0.0
2018-Feb-20 23:00S 32°43' E 152°09'0 0.0
2018-Feb-20 22:30S 32°43' E 152°09'0 0.0
2018-Feb-20 22:00S 32°43' E 152°09'0 0.0
2018-Feb-20 21:25S 32°43' E 152°09'0 0.0
2018-Feb-20 11:18S 32°43' E 152°09'0 0.0
2018-Feb-20 11:00S 32°43' E 152°09'3 5.7
2018-Feb-20 10:30S 32°40' E 152°07'0 0.5
2018-Feb-20 10:01S 32°41' E 152°07'3 5.2
2018-Feb-20 09:31S 32°43' E 152°09'2 4.0
2018-Feb-20 09:00S 32°42' E 152°11'2 4.7
2018-Feb-20 08:30S 32°43' E 152°09'0 0.0
2018-Feb-20 08:00S 32°43' E 152°09'0 0.0
2018-Feb-18 23:40S 32°43' E 152°09'0 0.0
2018-Feb-18 23:30S 32°43' E 152°09'0 0.0
2018-Feb-18 04:56S 32°43' E 152°09'0 0.9
2018-Feb-18 04:30S 32°43' E 152°09'0 0.0
2018-Feb-17 01:10S 32°43' E 152°09'0 0.0
2018-Feb-17 01:00S 32°43' E 152°09'4 7.8
2018-Feb-17 00:28S 32°42' E 152°04'0 0.0
2018-Feb-17 00:00S 32°42' E 152°04'0 0.0
2018-Feb-16 23:30S 32°42' E 152°04'0 0.0
2018-Feb-16 23:00S 32°42' E 152°04'611.3
2018-Feb-16 22:30S 32°43' E 152°10'1 1.5
2018-Feb-16 22:01S 32°42' E 152°10'1 0.1
2018-Feb-16 01:01S 32°43' E 152°09'0 0.0
2018-Feb-16 01:00S 32°43' E 152°09'4 8.2
2018-Feb-16 00:31S 32°42' E 152°04'2 4.2
2018-Feb-16 00:00S 32°41' E 152°06'2 4.5
2018-Feb-15 23:30S 32°40' E 152°09'0 0.3
2018-Feb-15 23:01S 32°40' E 152°09'2 3.0
2018-Feb-15 22:30S 32°41' E 152°07'2 3.4
2018-Feb-15 22:00S 32°41' E 152°09'2 4.3
2018-Feb-15 21:30S 32°43' E 152°09'0 0.0
2018-Feb-15 21:00S 32°43' E 152°09'0 0.0
2018-Feb-13 23:51S 32°43' E 152°09'0 0.0
2018-Feb-13 23:30S 32°43' E 152°09'0 0.0
2018-Feb-13 23:01S 32°43' E 152°09'0 0.0
2018-Feb-13 22:30S 32°43' E 152°09'0 0.0
2018-Feb-13 01:48S 32°43' E 152°09'0 0.2
2018-Feb-13 01:22S 32°43' E 152°09'2 5.2
2018-Feb-13 01:00S 32°43' E 152°06'2 4.8
2018-Feb-13 00:31S 32°43' E 152°09'1 1.7
2018-Feb-13 00:01S 32°43' E 152°10'0 0.1
2018-Feb-12 23:31S 32°43' E 152°10'0 0.0
2018-Feb-12 23:00S 32°43' E 152°10'1 1.1
2018-Feb-12 22:30S 32°43' E 152°11'2 3.5
2018-Feb-12 22:01S 32°43' E 152°09'0 0.0
2018-Feb-11 02:00S 32°43' E 152°09'  

Dump ship's entire track history